Superseacat Three — IBGH — position and weather

sailwx.info

Track history (hours):
 
Tides and Currents Weather Stations Pressure Air Temp Water Temp Dewpoint Dewpoint Depression Visibility Wind Speed Wind Dir Waves Ship Positions

Superseacat Three

Operator: Sea Containers Irish Sea Operations

Last reported at 2017-Dec-01 14:32 UTC. Time now 2018-Jan-20 09:21 UTC.
Position N 35°59' W 005°30'.
Warning: this ship's position is 49 days out of date.

Length 110 m; draft 7.7 m.

Type: Ship (hazmat cat B). MMSI: 247353300.

Date/timePositionNaut miles runAvg speedWind from/ knotsBaromVisibWave heightAir tempDewpointWater temp
2017-Dec-01 14:32N 35°59' W 005°30'1 8.0
2017-Dec-01 14:27N 35°59' W 005°29'7 8.4
2017-Dec-01 13:38N 36°01' W 005°21'1 8.2
2017-Dec-01 13:30N 36°01' W 005°20'  
2017-Nov-27 18:17N 37°02' E 013°45'2 8.5
2017-Nov-27 18:00N 37°01' E 013°48'4 9.0
2017-Nov-27 17:30N 36°60' E 013°53'5 9.6
2017-Nov-27 17:00N 36°59' E 013°59'5 9.9
2017-Nov-27 16:30N 36°58' E 014°05'5 9.6
2017-Nov-27 16:00N 36°56' E 014°11'510.4
2017-Nov-27 15:30N 36°53' E 014°16'510.2
2017-Nov-27 15:01N 36°49' E 014°20'5 9.6
2017-Nov-27 14:30N 36°46' E 014°25'5 9.4
2017-Nov-27 14:00N 36°44' E 014°30'  
Track history (hours):
 
Tides and Currents Weather Stations Pressure Air Temp Water Temp Dewpoint Dewpoint Depression Visibility Wind Speed Wind Dir Waves Ship Positions

Superseacat Three

Operator: Sea Containers Irish Sea Operations

Last reported at 2017-Dec-01 14:32 UTC. Time now 2018-Jan-20 09:21 UTC.
Position N 35°59' W 005°30'.
Warning: this ship's position is 49 days out of date.

Length 110 m; draft 7.7 m.

Type: Ship (hazmat cat B). MMSI: 247353300.

Date/timePositionNaut miles runAvg speedWind from/ knotsBaromVisibWave heightAir tempDewpointWater temp
2017-Dec-01 14:32N 35°59' W 005°30'1 8.0
2017-Dec-01 14:27N 35°59' W 005°29'7 8.4
2017-Dec-01 13:38N 36°01' W 005°21'1 8.2
2017-Dec-01 13:30N 36°01' W 005°20'  
2017-Nov-27 18:17N 37°02' E 013°45'2 8.5
2017-Nov-27 18:00N 37°01' E 013°48'4 9.0
2017-Nov-27 17:30N 36°60' E 013°53'5 9.6
2017-Nov-27 17:00N 36°59' E 013°59'5 9.9
2017-Nov-27 16:30N 36°58' E 014°05'5 9.6
2017-Nov-27 16:00N 36°56' E 014°11'510.4
2017-Nov-27 15:30N 36°53' E 014°16'510.2
2017-Nov-27 15:01N 36°49' E 014°20'5 9.6
2017-Nov-27 14:30N 36°46' E 014°25'5 9.4
2017-Nov-27 14:00N 36°44' E 014°30'  

Dump ship's entire track history